createdAt,value
2023-04-09T00:03:12.886Z,17.90
2023-04-09T00:08:28.715Z,18.52
2023-04-09T00:13:44.765Z,19.20
2023-04-09T00:19:01.427Z,16.52
2023-04-09T00:24:17.154Z,14.23
2023-04-09T00:29:33.089Z,16.13
2023-04-09T00:34:48.991Z,12.70
2023-04-09T00:40:05.960Z,9.32
2023-04-09T00:45:21.457Z,12.52
2023-04-09T00:50:37.030Z,12.43
2023-04-09T00:55:54.035Z,11.80
2023-04-09T01:01:09.810Z,13.10
2023-04-09T01:06:32.462Z,11.25
2023-04-09T01:11:51.227Z,15.23
2023-04-09T01:17:29.773Z,12.63
2023-04-09T01:23:10.631Z,14.23
2023-04-09T01:28:33.461Z,10.30
2023-04-09T01:33:48.970Z,12.25
2023-04-09T01:39:06.599Z,9.65
2023-04-09T01:44:23.928Z,8.38
2023-04-09T01:49:42.006Z,10.45
2023-04-09T01:54:58.075Z,9.90
2023-04-09T02:00:15.245Z,5.82
2023-04-09T02:05:36.741Z,6.43
2023-04-09T02:10:58.337Z,6.95
2023-04-09T02:16:16.455Z,6.13
2023-04-09T02:21:32.766Z,6.82
2023-04-09T02:26:48.264Z,8.48
2023-04-09T02:32:04.297Z,5.75
2023-04-09T02:37:20.230Z,6.68
2023-04-09T02:42:36.036Z,5.85
2023-04-09T02:47:51.941Z,5.75
2023-04-09T02:53:08.013Z,6.38
2023-04-09T02:58:23.955Z,4.57
2023-04-09T03:03:42.434Z,6.30
2023-04-09T03:08:58.201Z,7.15
2023-04-09T03:14:14.222Z,5.20
2023-04-09T03:19:31.429Z,8.10
2023-04-09T03:24:46.980Z,4.47
2023-04-09T03:30:03.489Z,6.32
2023-04-09T03:35:19.453Z,4.65
2023-04-09T03:40:36.666Z,5.65
2023-04-09T03:45:52.735Z,4.03
2023-04-09T03:51:16.099Z,4.47
2023-04-09T03:56:31.835Z,5.47
2023-04-09T04:01:48.458Z,5.63
2023-04-09T04:07:04.967Z,4.47
2023-04-09T04:12:20.804Z,7.55
2023-04-09T04:17:36.778Z,4.88
2023-04-09T04:22:52.693Z,8.57
2023-04-09T04:28:08.841Z,6.70
2023-04-09T04:33:25.879Z,14.32
2023-04-09T04:38:42.432Z,4.55
2023-04-09T04:43:58.289Z,5.65
2023-04-09T04:49:13.868Z,7.53
2023-04-09T04:54:29.919Z,4.70
2023-04-09T04:59:45.819Z,7.05
2023-04-09T05:05:01.336Z,8.25
2023-04-09T05:10:16.714Z,5.55
2023-04-09T05:15:32.637Z,8.60
2023-04-09T05:20:48.559Z,6.25
2023-04-09T05:26:04.654Z,7.22
2023-04-09T05:31:20.551Z,7.10
2023-04-09T05:36:36.477Z,8.85
2023-04-09T05:41:52.650Z,10.40
2023-04-09T05:47:08.087Z,4.57
2023-04-09T05:52:24.000Z,6.38
2023-04-09T05:57:39.787Z,5.32
2023-04-09T06:02:55.234Z,6.03
2023-04-09T06:08:11.385Z,7.38
2023-04-09T06:13:27.017Z,5.85
2023-04-09T06:18:42.751Z,4.80
2023-04-09T06:23:58.589Z,7.22
2023-04-09T06:29:14.237Z,4.68
2023-04-09T06:34:29.896Z,5.43
2023-04-09T06:40:00.013Z,6.35
2023-04-09T06:45:16.868Z,8.32
2023-04-09T06:50:33.004Z,6.43
2023-04-09T06:55:48.434Z,4.55
2023-04-09T07:01:04.069Z,5.13
2023-04-09T07:06:19.688Z,4.47
2023-04-09T07:11:35.417Z,5.13
2023-04-09T07:16:51.374Z,4.30
2023-04-09T07:22:07.318Z,3.70
2023-04-09T07:27:30.370Z,4.40
2023-04-09T07:32:45.842Z,4.03
2023-04-09T07:38:01.694Z,5.85
2023-04-09T07:43:17.527Z,7.95
2023-04-09T07:48:32.978Z,6.65
2023-04-09T07:53:48.528Z,4.70
2023-04-09T07:59:04.947Z,6.47
2023-04-09T08:04:20.763Z,6.15
2023-04-09T08:09:36.584Z,4.93
2023-04-09T08:14:52.771Z,4.53
2023-04-09T08:20:08.996Z,4.38
2023-04-09T08:25:25.005Z,13.15
2023-04-09T08:30:40.376Z,7.22
2023-04-09T08:35:56.327Z,5.20
2023-04-09T08:41:21.692Z,7.38
2023-04-09T08:46:37.912Z,5.38
2023-04-09T08:51:53.790Z,7.10
2023-04-09T08:57:09.175Z,10.45
2023-04-09T09:02:25.297Z,9.82
2023-04-09T09:07:54.808Z,7.35
2023-04-09T09:13:25.551Z,10.43
2023-04-09T09:18:44.659Z,10.13
2023-04-09T09:24:01.186Z,9.32
2023-04-09T09:29:17.101Z,8.13
2023-04-09T09:34:32.752Z,8.30
2023-04-09T09:39:48.646Z,10.00
2023-04-09T09:45:19.714Z,11.95
2023-04-09T09:50:36.722Z,9.90
2023-04-09T09:55:56.694Z,11.77
2023-04-09T10:01:17.430Z,13.90
2023-04-09T10:06:38.962Z,10.27
2023-04-09T10:11:58.217Z,13.15
2023-04-09T10:17:14.349Z,13.07
2023-04-09T10:22:33.752Z,11.95
2023-04-09T10:28:03.085Z,10.65
2023-04-09T10:33:28.123Z,12.18
2023-04-09T10:38:47.228Z,11.50
2023-04-09T10:44:07.603Z,11.60
2023-04-09T10:49:25.591Z,12.30
2023-04-09T10:54:46.732Z,14.18
2023-04-09T11:00:02.753Z,12.75
2023-04-09T11:05:18.756Z,10.90
2023-04-09T11:10:35.011Z,12.15
2023-04-09T11:15:51.203Z,10.27
2023-04-09T11:21:07.378Z,8.73
2023-04-09T11:26:36.715Z,7.72
2023-04-09T11:31:52.341Z,10.95
2023-04-09T11:37:17.157Z,4.57
2023-04-09T11:42:33.053Z,6.47
2023-04-09T11:47:49.785Z,4.40
2023-04-09T11:53:19.725Z,4.90
2023-04-09T11:58:36.705Z,5.28
2023-04-09T12:03:55.161Z,6.75
2023-04-09T12:09:13.834Z,9.20
2023-04-09T12:14:29.528Z,8.45
2023-04-09T12:19:48.890Z,5.90
2023-04-09T12:25:04.822Z,4.60
2023-04-09T12:30:20.526Z,5.93
2023-04-09T12:35:38.493Z,6.25
2023-04-09T12:40:54.864Z,7.05
2023-04-09T12:46:10.911Z,7.00
2023-04-09T12:51:26.904Z,6.68
2023-04-09T12:56:43.114Z,4.88
2023-04-09T13:01:58.799Z,3.95
2023-04-09T13:07:17.622Z,5.75
2023-04-09T13:12:33.216Z,4.40
2023-04-09T13:17:48.959Z,4.32
2023-04-09T13:23:04.469Z,6.78
2023-04-09T13:28:19.910Z,3.42
2023-04-09T13:33:35.708Z,4.15
2023-04-09T13:38:52.163Z,3.40
2023-04-09T13:44:08.365Z,2.80
2023-04-09T13:49:24.409Z,3.85
2023-04-09T13:54:40.885Z,4.53
2023-04-09T13:59:56.767Z,4.93
2023-04-09T14:05:12.880Z,4.47
2023-04-09T14:10:28.682Z,4.50
2023-04-09T14:15:45.651Z,5.95
2023-04-09T14:21:01.682Z,4.55
2023-04-09T14:26:17.240Z,4.60
2023-04-09T14:31:33.199Z,3.85
2023-04-09T14:36:48.994Z,4.78
2023-04-09T14:42:04.860Z,3.25
2023-04-09T14:47:20.926Z,3.00
2023-04-09T14:52:36.826Z,4.00
2023-04-09T14:57:52.888Z,4.28
2023-04-09T15:03:08.862Z,5.03
2023-04-09T15:08:25.071Z,5.32
2023-04-09T15:13:41.045Z,2.70
2023-04-09T15:18:59.018Z,3.78
2023-04-09T15:24:14.968Z,1.98
2023-04-09T15:29:32.381Z,4.95
2023-04-09T15:34:48.196Z,2.55
2023-04-09T15:40:04.733Z,2.63
2023-04-09T15:45:20.844Z,1.75
2023-04-09T15:50:37.063Z,2.30
2023-04-09T15:55:52.856Z,1.63
2023-04-09T16:01:09.852Z,2.30
2023-04-09T16:06:25.796Z,1.83
2023-04-09T16:11:41.679Z,3.25
2023-04-09T16:16:57.587Z,3.55
2023-04-09T16:22:13.747Z,2.72
2023-04-09T16:27:29.444Z,2.70
2023-04-09T16:32:45.570Z,2.08
2023-04-09T16:38:01.776Z,1.88
2023-04-09T16:43:17.415Z,2.45
2023-04-09T16:48:34.385Z,8.73
2023-04-09T16:53:50.454Z,2.45
2023-04-09T16:59:06.345Z,5.20
2023-04-09T17:04:22.399Z,3.35
2023-04-09T17:09:38.404Z,4.75
2023-04-09T17:14:55.586Z,7.40
2023-04-09T17:20:12.597Z,7.68
2023-04-09T17:25:30.032Z,4.78
2023-04-09T17:30:45.646Z,4.07
2023-04-09T17:36:01.945Z,4.70
2023-04-09T17:41:18.344Z,4.68
2023-04-09T17:46:34.813Z,6.50
2023-04-09T17:51:50.875Z,6.80
2023-04-09T17:57:08.100Z,15.57
2023-04-09T18:02:24.310Z,11.65
2023-04-09T18:07:40.219Z,12.82
2023-04-09T18:12:56.118Z,15.93
2023-04-09T18:18:12.056Z,15.98
2023-04-09T18:23:28.059Z,19.55
2023-04-09T18:28:44.035Z,13.93
2023-04-09T18:34:00.058Z,17.92
2023-04-09T18:39:16.338Z,23.00
2023-04-09T18:44:36.328Z,13.15
2023-04-09T18:49:52.392Z,13.70
2023-04-09T18:55:09.052Z,17.83
2023-04-09T19:00:24.876Z,12.90
2023-04-09T19:05:40.757Z,12.40
2023-04-09T19:10:56.822Z,19.80
2023-04-09T19:16:12.767Z,12.18
2023-04-09T19:21:29.196Z,8.10
2023-04-09T19:26:45.143Z,8.45
2023-04-09T19:32:01.397Z,7.90
2023-04-09T19:37:19.271Z,11.57
2023-04-09T19:42:34.795Z,14.45
2023-04-09T19:47:50.389Z,10.20
2023-04-09T19:53:07.246Z,18.83
2023-04-09T19:58:24.361Z,12.70
2023-04-09T20:03:40.392Z,15.57
2023-04-09T20:08:56.783Z,13.38
2023-04-09T20:14:12.781Z,11.52
2023-04-09T20:19:28.588Z,7.50
2023-04-09T20:24:44.435Z,7.00
2023-04-09T20:30:00.501Z,12.73
2023-04-09T20:35:16.736Z,18.08
2023-04-09T20:40:35.632Z,18.75
2023-04-09T20:45:53.198Z,9.75
2023-04-09T20:51:12.200Z,14.13
2023-04-09T20:56:28.157Z,11.63
2023-04-09T21:01:44.275Z,13.52
2023-04-09T21:06:59.971Z,11.43
2023-04-09T21:12:16.007Z,14.60
2023-04-09T21:17:33.122Z,16.30
2023-04-09T21:22:48.903Z,10.95
2023-04-09T21:28:06.710Z,14.63
2023-04-09T21:33:22.385Z,8.32
2023-04-09T21:38:38.504Z,9.70
2023-04-09T21:43:54.143Z,9.48
2023-04-09T21:49:10.077Z,9.68
2023-04-09T21:54:26.047Z,11.90
2023-04-09T21:59:42.345Z,12.73
2023-04-09T22:05:01.424Z,9.30
2023-04-09T22:10:17.465Z,6.97
2023-04-09T22:15:33.496Z,8.23
2023-04-09T22:20:49.231Z,12.82
2023-04-09T22:26:05.431Z,10.88
2023-04-09T22:31:21.728Z,9.27
2023-04-09T22:36:37.622Z,9.43
2023-04-09T22:41:54.328Z,10.57
2023-04-09T22:47:10.121Z,11.10
2023-04-09T22:52:25.928Z,11.15
2023-04-09T22:57:43.285Z,11.23
2023-04-09T23:02:59.270Z,13.70
2023-04-09T23:08:14.959Z,10.48
2023-04-09T23:13:30.832Z,13.65
2023-04-09T23:18:46.715Z,12.20
2023-04-09T23:24:02.737Z,14.23
2023-04-09T23:29:18.584Z,11.90
2023-04-09T23:34:34.444Z,12.35
2023-04-09T23:39:49.916Z,12.85
2023-04-09T23:45:06.748Z,13.70
2023-04-09T23:50:23.333Z,13.52
2023-04-09T23:55:41.486Z,14.73
